Terminal Aerodrome Forecast
Issued by NWS

Home | Current Version | Previous Version | Text Only | Print | Product List | Glossary On
Versions: 1 2 3 4 5 6 7 8 9 10 11 12 13 14 15 16 17 18 19 20 21 22 23 24
000
FTPA31 PHFO 020500
TAFJRF
TAF
PHJR 020520Z 0206/0306 17010KT P6SM SCT030 BKN050
      TEMPO 0206/0208 -SHRA BKN025
     FM020800 VRB03KT P6SM SCT050
     FM022000 13010KT P6SM SCT030 BKN050
     FM030500 VRB03KT P6SM SCT050=

USA.gov is the U.S. government's official web portal to all federal, state and local government web resources and services.